• Join FlightAware (Why Join?)
  • Login
  • US Flag 
11:57AM EDT


 

Airport Tracker/Info


-or-


 

Live Flight TrackerFlight Track Log ✈ N3715C ✈ 18-Jul-2013 ✈ KCYO - 3G3

Flight Track Log - Related Links

Times and Time Zones

All times are in EDT time to prevent confusion due to time zone crossing. See the N3715C flight status page for this flight to view local times or setup timezone preferences in your user account.

Time Position Orientation Groundspeed Altitude Reporting Facility
EDT Latitude Longitude Course Direction KTS MPH feet Rate Location/Type
04:29PM 39.5722 -82.9475 42° Northeast 143 165 2,200  Level Indianapolis Center
04:30PM 39.6050 -82.9092 42° Northeast 150 173 3,100 840 Climbing Indianapolis Center
04:31PM 39.6414 -82.8825 29° Northeast 157 181 4,000 900 Climbing Indianapolis Center
04:32PM 39.6753 -82.8553 32° Northeast 154 177 5,000 900 Climbing Indianapolis Center
04:33PM 39.7056 -82.8247 38° Northeast 138 159 5,900 840 Climbing Indianapolis Center
04:34PM 39.7375 -82.7969 34° Northeast 136 157 6,800 540 Climbing Indianapolis Center
04:35PM 39.7656 -82.7497 52° Northeast 147 169 7,100 120 Climbing Indianapolis Center
04:36PM 39.7983 -82.7086 44° Northeast 178 205 7,100  Level Indianapolis Center
04:37PM 39.8322 -82.6594 48° Northeast 186 214 7,200  Climbing Indianapolis Center
04:38PM 39.8625 -82.6069 53° Northeast 183 211 7,100 -60 Descending Indianapolis Center
04:39PM 39.8911 -82.5458 59° Northeast 185 213 7,100  Level Indianapolis Center
04:40PM 39.9197 -82.4753 62° Northeast 184 212 7,100 60 Level Indianapolis Center
04:41PM 39.9456 -82.4178 60° Northeast 183 211 7,300 360 Climbing Indianapolis Center
04:42PM 39.9719 -82.3669 56° Northeast 170 196 7,900 660 Climbing Indianapolis Center
04:43PM 39.9964 -82.3128 59° Northeast 151 174 8,700 540 Climbing Indianapolis Center
04:44PM 40.0119 -82.2664 66° East 140 161 9,100 180 Climbing Indianapolis Center
04:45PM 40.0306 -82.2086 67° East 168 193 9,100  Level Indianapolis Center
04:46PM 40.0478 -82.1456 70° East 182 209 9,100  Level Indianapolis Center
04:47PM 40.0656 -82.0833 70° East 181 208 9,100  Level Indianapolis Center
04:48PM 40.0900 -82.0233 62° Northeast 186 214 9,100  Level Indianapolis Center
04:49PM 40.1300 -81.9792 40° Northeast 188 216 9,100  Level Indianapolis Center
04:50PM 40.1822 -81.9439 27° Northeast 179 206 9,100 60 Level Indianapolis Center
04:51PM 40.2222 -81.9014 39° Northeast 182 209 9,300  Climbing Indianapolis Center
04:52PM 40.2647 -81.8772 23° Northeast 186 214 9,200 -300 Descending Indianapolis Center
04:54PM 40.3117 -81.8214 42° Northeast 195 224 8,700 -480 Descending Indianapolis Center
04:55PM 40.3578 -81.7764 37° Northeast 204 235 8,300 -600 Descending Indianapolis Center
04:56PM 40.4111 -81.7492 21° North 204 235 7,500 -780 Descending Indianapolis Center
04:57PM 40.4675 -81.7400 North 202 232 6,800 -720 Descending Indianapolis Center
04:58PM 40.5214 -81.7281 10° North 195 224 6,100 -660 Descending Indianapolis Center
04:59PM 40.5728 -81.7194 North 187 215 5,500 -720 Descending Indianapolis Center
05:00PM 40.6225 -81.7214 358° North 178 205 4,700 -660 Descending Indianapolis Center
05:01PM 40.6811 -81.7231 359° North 179 206 4,200 -540 Descending Indianapolis Center
05:02PM 40.7281 -81.7303 353° North 172 198 3,600 -540 Descending Indianapolis Center
05:03PM 40.7758 -81.7369 354° North 170 196 3,100 -300 Descending Indianapolis Center
05:04PM 40.8225 -81.7344 North 168 193 3,000 -60 Descending Indianapolis Center
05:05PM 40.8681 -81.7411 354° North 165 190 3,000 -60 Level Indianapolis Center
05:06PM 40.9172 -81.7492 353° North 162 186 2,900 -120 Descending Indianapolis Center